sensor_id;sensor_type;location;lat;lon;timestamp;P1;durP1;ratioP1;P2;durP2;ratioP2
4106;SDS011;21906;50.812;7.132;2022-08-18T00:02:10;16.50;;;15.00;;
4106;SDS011;21906;50.812;7.132;2022-08-18T00:04:42;15.90;;;14.40;;
4106;SDS011;21906;50.812;7.132;2022-08-18T00:07:09;17.03;;;15.43;;
4106;SDS011;21906;50.812;7.132;2022-08-18T00:09:40;15.70;;;14.30;;
4106;SDS011;21906;50.812;7.132;2022-08-18T00:12:17;15.13;;;13.80;;
4106;SDS011;21906;50.812;7.132;2022-08-18T00:14:48;14.77;;;13.17;;
4106;SDS011;21906;50.812;7.132;2022-08-18T00:17:14;16.47;;;14.70;;
4106;SDS011;21906;50.812;7.132;2022-08-18T00:19:41;16.77;;;15.07;;
4106;SDS011;21906;50.812;7.132;2022-08-18T00:22:07;15.73;;;14.33;;
4106;SDS011;21906;50.812;7.132;2022-08-18T00:24:34;13.97;;;12.50;;
4106;SDS011;21906;50.812;7.132;2022-08-18T00:27:02;15.77;;;14.33;;
4106;SDS011;21906;50.812;7.132;2022-08-18T00:29:29;15.17;;;13.80;;
4106;SDS011;21906;50.812;7.132;2022-08-18T00:31:54;15.57;;;14.07;;
4106;SDS011;21906;50.812;7.132;2022-08-18T00:34:20;15.80;;;14.30;;
4106;SDS011;21906;50.812;7.132;2022-08-18T00:36:46;15.60;;;14.10;;
4106;SDS011;21906;50.812;7.132;2022-08-18T00:39:11;15.70;;;13.90;;
4106;SDS011;21906;50.812;7.132;2022-08-18T00:41:37;15.60;;;14.20;;
4106;SDS011;21906;50.812;7.132;2022-08-18T00:44:03;16.23;;;14.67;;
4106;SDS011;21906;50.812;7.132;2022-08-18T00:46:31;16.53;;;14.90;;
4106;SDS011;21906;50.812;7.132;2022-08-18T00:48:59;15.30;;;13.83;;
4106;SDS011;21906;50.812;7.132;2022-08-18T00:51:31;16.47;;;14.77;;
4106;SDS011;21906;50.812;7.132;2022-08-18T00:54:05;16.83;;;15.13;;
4106;SDS011;21906;50.812;7.132;2022-08-18T00:56:42;16.80;;;14.70;;
4106;SDS011;21906;50.812;7.132;2022-08-18T01:01:51;15.73;;;14.23;;
4106;SDS011;21906;50.812;7.132;2022-08-18T01:04:27;15.93;;;14.43;;
4106;SDS011;21906;50.812;7.132;2022-08-18T01:07:04;15.30;;;13.90;;
4106;SDS011;21906;50.812;7.132;2022-08-18T01:09:38;15.77;;;13.77;;
4106;SDS011;21906;50.812;7.132;2022-08-18T01:12:03;15.27;;;13.87;;
4106;SDS011;21906;50.812;7.132;2022-08-18T01:14:29;17.03;;;15.37;;
4106;SDS011;21906;50.812;7.132;2022-08-18T01:16:55;16.20;;;14.40;;
4106;SDS011;21906;50.812;7.132;2022-08-18T01:19:40;15.07;;;13.50;;
4106;SDS011;21906;50.812;7.132;2022-08-18T01:22:29;16.87;;;15.27;;
4106;SDS011;21906;50.812;7.132;2022-08-18T01:24:57;16.03;;;14.47;;
4106;SDS011;21906;50.812;7.132;2022-08-18T01:27:43;17.00;;;15.20;;
4106;SDS011;21906;50.812;7.132;2022-08-18T01:30:12;17.90;;;16.10;;
4106;SDS011;21906;50.812;7.132;2022-08-18T01:32:40;17.27;;;15.47;;
4106;SDS011;21906;50.812;7.132;2022-08-18T01:35:09;19.93;;;17.83;;
4106;SDS011;21906;50.812;7.132;2022-08-18T01:37:37;16.93;;;15.13;;
4106;SDS011;21906;50.812;7.132;2022-08-18T01:40:05;18.33;;;16.47;;
4106;SDS011;21906;50.812;7.132;2022-08-18T01:42:33;21.40;;;18.10;;
4106;SDS011;21906;50.812;7.132;2022-08-18T01:45:00;19.80;;;17.20;;
4106;SDS011;21906;50.812;7.132;2022-08-18T01:47:28;22.13;;;18.37;;
4106;SDS011;21906;50.812;7.132;2022-08-18T01:49:56;19.63;;;17.60;;
4106;SDS011;21906;50.812;7.132;2022-08-18T01:52:22;20.20;;;18.00;;
4106;SDS011;21906;50.812;7.132;2022-08-18T01:54:49;19.63;;;17.63;;
4106;SDS011;21906;50.812;7.132;2022-08-18T01:57:16;20.03;;;17.80;;
4106;SDS011;21906;50.812;7.132;2022-08-18T01:59:43;18.27;;;16.37;;
4106;SDS011;21906;50.812;7.132;2022-08-18T02:02:11;19.30;;;17.30;;
4106;SDS011;21906;50.812;7.132;2022-08-18T02:04:41;19.43;;;17.40;;
4106;SDS011;21906;50.812;7.132;2022-08-18T02:07:08;18.57;;;16.60;;
4106;SDS011;21906;50.812;7.132;2022-08-18T02:09:36;19.20;;;16.90;;
4106;SDS011;21906;50.812;7.132;2022-08-18T02:12:04;20.70;;;18.07;;
4106;SDS011;21906;50.812;7.132;2022-08-18T02:14:31;19.97;;;17.90;;
4106;SDS011;21906;50.812;7.132;2022-08-18T02:16:57;23.53;;;19.20;;
4106;SDS011;21906;50.812;7.132;2022-08-18T02:19:25;22.33;;;19.87;;
4106;SDS011;21906;50.812;7.132;2022-08-18T02:21:51;21.90;;;19.40;;
4106;SDS011;21906;50.812;7.132;2022-08-18T02:24:17;20.80;;;18.27;;
4106;SDS011;21906;50.812;7.132;2022-08-18T02:26:42;18.23;;;16.40;;
4106;SDS011;21906;50.812;7.132;2022-08-18T02:29:08;20.13;;;18.00;;
4106;SDS011;21906;50.812;7.132;2022-08-18T02:31:34;21.53;;;17.67;;
4106;SDS011;21906;50.812;7.132;2022-08-18T02:34:00;26.37;;;20.53;;
4106;SDS011;21906;50.812;7.132;2022-08-18T02:36:25;24.23;;;18.90;;
4106;SDS011;21906;50.812;7.132;2022-08-18T02:38:52;20.10;;;17.90;;
4106;SDS011;21906;50.812;7.132;2022-08-18T02:41:18;22.47;;;19.60;;
4106;SDS011;21906;50.812;7.132;2022-08-18T02:43:44;24.03;;;20.00;;
4106;SDS011;21906;50.812;7.132;2022-08-18T02:46:12;20.60;;;18.03;;
4106;SDS011;21906;50.812;7.132;2022-08-18T02:48:38;19.70;;;17.10;;
4106;SDS011;21906;50.812;7.132;2022-08-18T02:51:11;21.33;;;18.73;;
4106;SDS011;21906;50.812;7.132;2022-08-18T02:53:40;20.57;;;17.97;;
4106;SDS011;21906;50.812;7.132;2022-08-18T02:56:08;22.13;;;19.83;;
4106;SDS011;21906;50.812;7.132;2022-08-18T02:58:46;20.93;;;18.70;;
4106;SDS011;21906;50.812;7.132;2022-08-18T03:01:12;22.90;;;19.80;;
4106;SDS011;21906;50.812;7.132;2022-08-18T03:03:38;19.40;;;17.40;;
4106;SDS011;21906;50.812;7.132;2022-08-18T03:06:03;21.40;;;18.70;;
4106;SDS011;21906;50.812;7.132;2022-08-18T03:08:30;23.70;;;19.70;;
4106;SDS011;21906;50.812;7.132;2022-08-18T03:10:56;21.37;;;19.07;;
4106;SDS011;21906;50.812;7.132;2022-08-18T03:13:22;21.23;;;19.10;;
4106;SDS011;21906;50.812;7.132;2022-08-18T03:15:48;21.10;;;18.90;;
4106;SDS011;21906;50.812;7.132;2022-08-18T03:18:14;22.47;;;20.17;;
4106;SDS011;21906;50.812;7.132;2022-08-18T03:20:41;20.53;;;18.47;;
4106;SDS011;21906;50.812;7.132;2022-08-18T03:23:09;20.67;;;18.57;;
4106;SDS011;21906;50.812;7.132;2022-08-18T03:25:35;20.97;;;18.80;;
4106;SDS011;21906;50.812;7.132;2022-08-18T03:28:01;21.50;;;19.40;;
4106;SDS011;21906;50.812;7.132;2022-08-18T03:30:28;21.90;;;19.70;;
4106;SDS011;21906;50.812;7.132;2022-08-18T03:32:53;22.87;;;20.07;;
4106;SDS011;21906;50.812;7.132;2022-08-18T03:35:19;20.03;;;18.10;;
4106;SDS011;21906;50.812;7.132;2022-08-18T03:37:45;21.93;;;19.63;;
4106;SDS011;21906;50.812;7.132;2022-08-18T03:40:10;21.63;;;19.43;;
4106;SDS011;21906;50.812;7.132;2022-08-18T03:42:36;22.13;;;19.67;;
4106;SDS011;21906;50.812;7.132;2022-08-18T03:45:03;23.30;;;21.00;;
4106;SDS011;21906;50.812;7.132;2022-08-18T03:47:29;21.90;;;19.60;;
4106;SDS011;21906;50.812;7.132;2022-08-18T03:49:56;21.37;;;19.37;;
4106;SDS011;21906;50.812;7.132;2022-08-18T03:52:23;21.10;;;19.00;;
4106;SDS011;21906;50.812;7.132;2022-08-18T03:54:49;20.60;;;18.50;;
4106;SDS011;21906;50.812;7.132;2022-08-18T03:57:14;22.77;;;20.37;;
4106;SDS011;21906;50.812;7.132;2022-08-18T03:59:40;22.80;;;19.90;;
4106;SDS011;21906;50.812;7.132;2022-08-18T04:02:07;22.63;;;20.10;;
4106;SDS011;21906;50.812;7.132;2022-08-18T04:04:33;22.37;;;19.97;;
4106;SDS011;21906;50.812;7.132;2022-08-18T04:07:01;23.47;;;20.97;;
4106;SDS011;21906;50.812;7.132;2022-08-18T04:09:30;24.63;;;20.97;;
4106;SDS011;21906;50.812;7.132;2022-08-18T04:12:00;25.73;;;21.83;;
4106;SDS011;21906;50.812;7.132;2022-08-18T04:14:29;21.50;;;18.63;;
4106;SDS011;21906;50.812;7.132;2022-08-18T04:16:56;21.80;;;19.50;;
4106;SDS011;21906;50.812;7.132;2022-08-18T04:19:23;23.30;;;20.80;;
4106;SDS011;21906;50.812;7.132;2022-08-18T04:21:50;24.03;;;20.10;;
4106;SDS011;21906;50.812;7.132;2022-08-18T04:24:16;26.20;;;22.77;;
4106;SDS011;21906;50.812;7.132;2022-08-18T04:26:43;25.23;;;22.20;;
4106;SDS011;21906;50.812;7.132;2022-08-18T04:29:11;24.40;;;21.80;;
4106;SDS011;21906;50.812;7.132;2022-08-18T04:31:39;27.50;;;23.00;;
4106;SDS011;21906;50.812;7.132;2022-08-18T04:34:05;25.37;;;22.27;;
4106;SDS011;21906;50.812;7.132;2022-08-18T04:36:32;27.77;;;21.50;;
4106;SDS011;21906;50.812;7.132;2022-08-18T04:38:59;23.63;;;20.77;;
4106;SDS011;21906;50.812;7.132;2022-08-18T04:41:26;27.10;;;23.10;;
4106;SDS011;21906;50.812;7.132;2022-08-18T04:43:54;27.27;;;23.77;;
4106;SDS011;21906;50.812;7.132;2022-08-18T04:46:22;30.30;;;24.17;;
4106;SDS011;21906;50.812;7.132;2022-08-18T04:48:48;28.80;;;24.17;;
4106;SDS011;21906;50.812;7.132;2022-08-18T04:51:16;29.57;;;24.20;;
4106;SDS011;21906;50.812;7.132;2022-08-18T04:53:44;30.30;;;24.90;;
4106;SDS011;21906;50.812;7.132;2022-08-18T04:59:11;33.03;;;25.00;;
4106;SDS011;21906;50.812;7.132;2022-08-18T05:01:41;32.13;;;26.30;;
4106;SDS011;21906;50.812;7.132;2022-08-18T05:04:12;29.30;;;24.80;;
4106;SDS011;21906;50.812;7.132;2022-08-18T05:06:40;34.93;;;27.93;;
4106;SDS011;21906;50.812;7.132;2022-08-18T05:09:07;34.47;;;28.03;;
4106;SDS011;21906;50.812;7.132;2022-08-18T05:11:34;36.13;;;29.80;;
4106;SDS011;21906;50.812;7.132;2022-08-18T05:14:01;44.60;;;32.23;;
4106;SDS011;21906;50.812;7.132;2022-08-18T05:16:30;37.23;;;30.00;;
4106;SDS011;21906;50.812;7.132;2022-08-18T05:19:07;37.30;;;28.57;;
4106;SDS011;21906;50.812;7.132;2022-08-18T05:21:36;37.00;;;30.33;;
4106;SDS011;21906;50.812;7.132;2022-08-18T05:24:03;37.87;;;29.07;;
4106;SDS011;21906;50.812;7.132;2022-08-18T05:26:29;42.43;;;31.20;;
4106;SDS011;21906;50.812;7.132;2022-08-18T05:28:56;38.17;;;30.93;;
4106;SDS011;21906;50.812;7.132;2022-08-18T05:31:24;37.40;;;29.27;;
4106;SDS011;21906;50.812;7.132;2022-08-18T05:33:51;34.73;;;27.33;;
4106;SDS011;21906;50.812;7.132;2022-08-18T05:41:36;36.63;;;27.67;;
4106;SDS011;21906;50.812;7.132;2022-08-18T05:44:05;37.93;;;29.27;;
4106;SDS011;21906;50.812;7.132;2022-08-18T05:49:19;42.40;;;31.73;;
4106;SDS011;21906;50.812;7.132;2022-08-18T05:51:47;42.43;;;31.30;;
4106;SDS011;21906;50.812;7.132;2022-08-18T05:54:14;52.77;;;35.70;;
4106;SDS011;21906;50.812;7.132;2022-08-18T05:57:10;59.80;;;36.80;;
4106;SDS011;21906;50.812;7.132;2022-08-18T05:59:42;47.67;;;32.60;;
4106;SDS011;21906;50.812;7.132;2022-08-18T06:04:55;57.03;;;36.20;;
4106;SDS011;21906;50.812;7.132;2022-08-18T06:07:30;52.60;;;36.80;;
4106;SDS011;21906;50.812;7.132;2022-08-18T06:10:03;58.20;;;37.70;;
4106;SDS011;21906;50.812;7.132;2022-08-18T06:12:32;61.47;;;37.50;;
4106;SDS011;21906;50.812;7.132;2022-08-18T06:15:02;56.30;;;36.90;;
4106;SDS011;21906;50.812;7.132;2022-08-18T06:17:52;67.03;;;38.57;;
4106;SDS011;21906;50.812;7.132;2022-08-18T06:29:01;62.30;;;35.70;;
4106;SDS011;21906;50.812;7.132;2022-08-18T06:34:18;67.20;;;38.17;;
4106;SDS011;21906;50.812;7.132;2022-08-18T06:37:05;64.43;;;38.80;;
4106;SDS011;21906;50.812;7.132;2022-08-18T06:42:17;62.60;;;35.10;;
4106;SDS011;21906;50.812;7.132;2022-08-18T06:44:50;62.90;;;37.33;;
4106;SDS011;21906;50.812;7.132;2022-08-18T06:47:36;61.77;;;36.47;;
4106;SDS011;21906;50.812;7.132;2022-08-18T06:52:52;67.80;;;38.40;;
4106;SDS011;21906;50.812;7.132;2022-08-18T06:55:35;69.23;;;39.03;;
4106;SDS011;21906;50.812;7.132;2022-08-18T07:00:44;66.00;;;37.80;;
4106;SDS011;21906;50.812;7.132;2022-08-18T07:03:21;72.87;;;39.07;;
4106;SDS011;21906;50.812;7.132;2022-08-18T07:06:07;65.50;;;37.47;;
4106;SDS011;21906;50.812;7.132;2022-08-18T07:08:55;60.60;;;34.60;;
4106;SDS011;21906;50.812;7.132;2022-08-18T07:12:05;63.43;;;35.90;;
4106;SDS011;21906;50.812;7.132;2022-08-18T07:15:14;66.33;;;36.40;;
4106;SDS011;21906;50.812;7.132;2022-08-18T07:17:31;69.13;;;37.53;;
4106;SDS011;21906;50.812;7.132;2022-08-18T07:20:08;67.13;;;36.80;;
4106;SDS011;21906;50.812;7.132;2022-08-18T07:25:26;76.40;;;36.43;;
4106;SDS011;21906;50.812;7.132;2022-08-18T07:27:55;73.17;;;37.30;;
4106;SDS011;21906;50.812;7.132;2022-08-18T07:32:52;65.03;;;35.77;;
4106;SDS011;21906;50.812;7.132;2022-08-18T07:38:37;56.07;;;34.03;;
4106;SDS011;21906;50.812;7.132;2022-08-18T07:49:15;76.33;;;39.00;;
4106;SDS011;21906;50.812;7.132;2022-08-18T07:51:46;71.63;;;39.53;;
4106;SDS011;21906;50.812;7.132;2022-08-18T07:57:02;72.87;;;37.77;;
4106;SDS011;21906;50.812;7.132;2022-08-18T08:02:49;64.10;;;35.53;;
4106;SDS011;21906;50.812;7.132;2022-08-18T08:05:46;72.60;;;36.37;;
4106;SDS011;21906;50.812;7.132;2022-08-18T08:11:15;66.93;;;37.47;;
4106;SDS011;21906;50.812;7.132;2022-08-18T08:16:36;65.70;;;37.20;;
4106;SDS011;21906;50.812;7.132;2022-08-18T08:19:23;74.17;;;39.13;;
4106;SDS011;21906;50.812;7.132;2022-08-18T08:21:59;70.27;;;38.97;;
4106;SDS011;21906;50.812;7.132;2022-08-18T08:30:22;54.80;;;34.17;;
4106;SDS011;21906;50.812;7.132;2022-08-18T08:33:24;56.63;;;34.90;;
4106;SDS011;21906;50.812;7.132;2022-08-18T08:38:53;66.67;;;38.00;;
4106;SDS011;21906;50.812;7.132;2022-08-18T08:41:06;60.73;;;36.30;;
4106;SDS011;21906;50.812;7.132;2022-08-18T08:43:56;57.90;;;37.03;;
4106;SDS011;21906;50.812;7.132;2022-08-18T08:46:26;56.03;;;33.97;;
4106;SDS011;21906;50.812;7.132;2022-08-18T08:49:59;52.70;;;34.00;;
4106;SDS011;21906;50.812;7.132;2022-08-18T08:52:14;52.40;;;34.33;;
4106;SDS011;21906;50.812;7.132;2022-08-18T08:54:49;57.93;;;35.33;;
4106;SDS011;21906;50.812;7.132;2022-08-18T08:57:30;60.80;;;37.67;;
4106;SDS011;21906;50.812;7.132;2022-08-18T09:00:07;61.43;;;38.37;;
4106;SDS011;21906;50.812;7.132;2022-08-18T09:02:53;60.20;;;38.30;;
4106;SDS011;21906;50.812;7.132;2022-08-18T09:05:25;54.53;;;35.47;;
4106;SDS011;21906;50.812;7.132;2022-08-18T09:11:05;52.50;;;33.10;;
4106;SDS011;21906;50.812;7.132;2022-08-18T09:14:06;55.53;;;34.30;;
4106;SDS011;21906;50.812;7.132;2022-08-18T09:22:09;63.23;;;36.67;;
4106;SDS011;21906;50.812;7.132;2022-08-18T09:24:57;62.00;;;37.50;;
4106;SDS011;21906;50.812;7.132;2022-08-18T09:27:43;54.03;;;35.90;;
4106;SDS011;21906;50.812;7.132;2022-08-18T09:33:18;50.67;;;32.87;;
4106;SDS011;21906;50.812;7.132;2022-08-18T09:36:08;57.10;;;38.27;;
4106;SDS011;21906;50.812;7.132;2022-08-18T09:39:08;57.73;;;36.70;;
4106;SDS011;21906;50.812;7.132;2022-08-18T09:49:47;49.37;;;33.37;;
4106;SDS011;21906;50.812;7.132;2022-08-18T09:57:27;44.53;;;32.27;;
4106;SDS011;21906;50.812;7.132;2022-08-18T10:21:23;45.30;;;32.80;;
4106;SDS011;21906;50.812;7.132;2022-08-18T10:31:27;51.23;;;36.50;;
4106;SDS011;21906;50.812;7.132;2022-08-18T10:33:55;45.73;;;33.20;;
4106;SDS011;21906;50.812;7.132;2022-08-18T10:39:11;57.40;;;38.30;;
4106;SDS011;21906;50.812;7.132;2022-08-18T10:41:49;44.23;;;31.43;;
4106;SDS011;21906;50.812;7.132;2022-08-18T10:44:20;49.03;;;34.40;;
4106;SDS011;21906;50.812;7.132;2022-08-18T10:46:48;43.87;;;32.10;;
4106;SDS011;21906;50.812;7.132;2022-08-18T10:52:01;41.93;;;31.50;;
4106;SDS011;21906;50.812;7.132;2022-08-18T11:00:06;40.80;;;31.60;;
4106;SDS011;21906;50.812;7.132;2022-08-18T11:05:27;47.60;;;34.27;;
4106;SDS011;21906;50.812;7.132;2022-08-18T11:07:54;39.17;;;31.30;;
4106;SDS011;21906;50.812;7.132;2022-08-18T11:10:36;37.20;;;30.87;;
4106;SDS011;21906;50.812;7.132;2022-08-18T11:13:05;33.90;;;28.97;;
4106;SDS011;21906;50.812;7.132;2022-08-18T11:18:43;40.63;;;32.10;;
4106;SDS011;21906;50.812;7.132;2022-08-18T11:26:41;35.10;;;29.47;;
4106;SDS011;21906;50.812;7.132;2022-08-18T11:29:17;40.47;;;30.90;;
4106;SDS011;21906;50.812;7.132;2022-08-18T11:32:03;37.73;;;31.87;;
4106;SDS011;21906;50.812;7.132;2022-08-18T11:39:57;33.17;;;29.40;;
4106;SDS011;21906;50.812;7.132;2022-08-18T11:42:32;28.80;;;25.70;;
4106;SDS011;21906;50.812;7.132;2022-08-18T11:45:14;40.20;;;33.13;;
4106;SDS011;21906;50.812;7.132;2022-08-18T11:51:10;32.30;;;28.20;;
4106;SDS011;21906;50.812;7.132;2022-08-18T12:01:32;37.33;;;30.07;;
4106;SDS011;21906;50.812;7.132;2022-08-18T12:04:41;32.50;;;28.97;;
4106;SDS011;21906;50.812;7.132;2022-08-18T12:09:37;30.57;;;27.00;;
4106;SDS011;21906;50.812;7.132;2022-08-18T12:12:32;33.30;;;27.90;;
4106;SDS011;21906;50.812;7.132;2022-08-18T12:15:03;33.60;;;27.03;;
4106;SDS011;21906;50.812;7.132;2022-08-18T12:17:35;34.73;;;29.73;;
4106;SDS011;21906;50.812;7.132;2022-08-18T12:20:01;33.67;;;29.93;;
4106;SDS011;21906;50.812;7.132;2022-08-18T12:22:29;39.80;;;32.80;;
4106;SDS011;21906;50.812;7.132;2022-08-18T12:24:55;29.83;;;26.70;;
4106;SDS011;21906;50.812;7.132;2022-08-18T12:27:23;32.20;;;28.87;;
4106;SDS011;21906;50.812;7.132;2022-08-18T12:29:50;34.80;;;29.60;;
4106;SDS011;21906;50.812;7.132;2022-08-18T12:32:18;33.83;;;28.50;;
4106;SDS011;21906;50.812;7.132;2022-08-18T12:34:47;28.67;;;25.70;;
4106;SDS011;21906;50.812;7.132;2022-08-18T12:37:18;28.47;;;25.20;;
4106;SDS011;21906;50.812;7.132;2022-08-18T12:39:49;41.00;;;32.43;;
4106;SDS011;21906;50.812;7.132;2022-08-18T12:42:15;32.00;;;28.57;;
4106;SDS011;21906;50.812;7.132;2022-08-18T12:44:41;29.23;;;25.83;;
4106;SDS011;21906;50.812;7.132;2022-08-18T12:47:11;31.13;;;27.83;;
4106;SDS011;21906;50.812;7.132;2022-08-18T12:49:39;25.73;;;23.10;;
4106;SDS011;21906;50.812;7.132;2022-08-18T12:52:05;28.07;;;25.13;;
4106;SDS011;21906;50.812;7.132;2022-08-18T12:54:31;30.73;;;27.43;;
4106;SDS011;21906;50.812;7.132;2022-08-18T12:56:59;29.33;;;26.30;;
4106;SDS011;21906;50.812;7.132;2022-08-18T12:59:25;28.60;;;25.70;;
4106;SDS011;21906;50.812;7.132;2022-08-18T13:01:52;28.23;;;24.90;;
4106;SDS011;21906;50.812;7.132;2022-08-18T13:04:18;31.10;;;26.90;;
4106;SDS011;21906;50.812;7.132;2022-08-18T13:06:53;29.60;;;26.40;;
4106;SDS011;21906;50.812;7.132;2022-08-18T13:09:21;28.93;;;26.00;;
4106;SDS011;21906;50.812;7.132;2022-08-18T13:11:47;26.07;;;23.10;;
4106;SDS011;21906;50.812;7.132;2022-08-18T13:14:13;30.03;;;26.13;;
4106;SDS011;21906;50.812;7.132;2022-08-18T13:16:42;28.93;;;25.83;;
4106;SDS011;21906;50.812;7.132;2022-08-18T13:19:10;27.80;;;24.90;;
4106;SDS011;21906;50.812;7.132;2022-08-18T13:21:37;31.00;;;27.60;;
4106;SDS011;21906;50.812;7.132;2022-08-18T13:24:03;30.60;;;25.90;;
4106;SDS011;21906;50.812;7.132;2022-08-18T13:26:33;25.93;;;23.13;;
4106;SDS011;21906;50.812;7.132;2022-08-18T13:29:02;26.70;;;23.87;;
4106;SDS011;21906;50.812;7.132;2022-08-18T13:31:29;27.50;;;24.63;;
4106;SDS011;21906;50.812;7.132;2022-08-18T13:33:56;26.73;;;24.00;;
4106;SDS011;21906;50.812;7.132;2022-08-18T13:36:23;25.43;;;22.83;;
4106;SDS011;21906;50.812;7.132;2022-08-18T13:38:50;28.57;;;25.67;;
4106;SDS011;21906;50.812;7.132;2022-08-18T13:41:18;26.07;;;23.20;;
4106;SDS011;21906;50.812;7.132;2022-08-18T13:43:45;25.47;;;22.90;;
4106;SDS011;21906;50.812;7.132;2022-08-18T13:46:15;26.97;;;24.37;;
4106;SDS011;21906;50.812;7.132;2022-08-18T13:48:42;24.60;;;22.00;;
4106;SDS011;21906;50.812;7.132;2022-08-18T13:51:10;24.90;;;22.27;;
4106;SDS011;21906;50.812;7.132;2022-08-18T13:53:44;26.10;;;23.50;;
4106;SDS011;21906;50.812;7.132;2022-08-18T13:56:10;21.37;;;19.43;;
4106;SDS011;21906;50.812;7.132;2022-08-18T13:58:36;23.43;;;21.23;;
4106;SDS011;21906;50.812;7.132;2022-08-18T14:01:03;23.17;;;21.00;;
4106;SDS011;21906;50.812;7.132;2022-08-18T14:03:31;23.70;;;21.57;;
4106;SDS011;21906;50.812;7.132;2022-08-18T14:05:59;25.40;;;22.90;;
4106;SDS011;21906;50.812;7.132;2022-08-18T14:08:26;24.27;;;21.97;;
4106;SDS011;21906;50.812;7.132;2022-08-18T14:10:53;26.07;;;23.47;;
4106;SDS011;21906;50.812;7.132;2022-08-18T14:13:22;24.50;;;22.03;;
4106;SDS011;21906;50.812;7.132;2022-08-18T14:15:51;24.17;;;21.97;;
4106;SDS011;21906;50.812;7.132;2022-08-18T14:18:18;25.23;;;22.93;;
4106;SDS011;21906;50.812;7.132;2022-08-18T14:20:43;24.80;;;22.50;;
4106;SDS011;21906;50.812;7.132;2022-08-18T14:23:28;22.10;;;20.20;;
4106;SDS011;21906;50.812;7.132;2022-08-18T14:26:12;19.60;;;17.77;;
4106;SDS011;21906;50.812;7.132;2022-08-18T14:28:56;24.00;;;21.70;;
4106;SDS011;21906;50.812;7.132;2022-08-18T14:31:22;21.10;;;19.00;;
4106;SDS011;21906;50.812;7.132;2022-08-18T14:33:48;24.50;;;22.07;;
4106;SDS011;21906;50.812;7.132;2022-08-18T14:36:13;24.30;;;22.00;;
4106;SDS011;21906;50.812;7.132;2022-08-18T14:38:40;23.70;;;21.30;;
4106;SDS011;21906;50.812;7.132;2022-08-18T14:41:07;24.43;;;22.13;;
4106;SDS011;21906;50.812;7.132;2022-08-18T14:43:35;23.57;;;21.43;;
4106;SDS011;21906;50.812;7.132;2022-08-18T14:46:01;21.97;;;20.03;;
4106;SDS011;21906;50.812;7.132;2022-08-18T14:48:29;23.93;;;21.77;;
4106;SDS011;21906;50.812;7.132;2022-08-18T14:50:55;23.40;;;21.20;;
4106;SDS011;21906;50.812;7.132;2022-08-18T14:53:25;20.33;;;18.63;;
4106;SDS011;21906;50.812;7.132;2022-08-18T14:55:53;24.83;;;22.43;;
4106;SDS011;21906;50.812;7.132;2022-08-18T14:58:20;22.13;;;20.23;;
4106;SDS011;21906;50.812;7.132;2022-08-18T15:00:52;20.87;;;19.17;;
4106;SDS011;21906;50.812;7.132;2022-08-18T15:03:22;22.27;;;20.37;;
4106;SDS011;21906;50.812;7.132;2022-08-18T15:05:48;18.43;;;16.87;;
4106;SDS011;21906;50.812;7.132;2022-08-18T15:08:14;19.40;;;17.70;;
4106;SDS011;21906;50.812;7.132;2022-08-18T15:10:40;19.90;;;18.30;;
4106;SDS011;21906;50.812;7.132;2022-08-18T15:13:05;18.70;;;17.20;;
4106;SDS011;21906;50.812;7.132;2022-08-18T15:15:33;19.93;;;18.20;;
4106;SDS011;21906;50.812;7.132;2022-08-18T15:17:59;19.57;;;17.77;;
4106;SDS011;21906;50.812;7.132;2022-08-18T15:20:25;17.17;;;15.77;;
4106;SDS011;21906;50.812;7.132;2022-08-18T15:22:51;17.33;;;15.83;;
4106;SDS011;21906;50.812;7.132;2022-08-18T15:25:36;18.40;;;16.80;;
4106;SDS011;21906;50.812;7.132;2022-08-18T15:28:13;14.73;;;13.50;;
4106;SDS011;21906;50.812;7.132;2022-08-18T15:30:44;17.83;;;16.40;;
4106;SDS011;21906;50.812;7.132;2022-08-18T15:33:11;14.97;;;13.87;;
4106;SDS011;21906;50.812;7.132;2022-08-18T15:35:39;13.90;;;12.80;;
4106;SDS011;21906;50.812;7.132;2022-08-18T15:38:06;14.80;;;13.77;;
4106;SDS011;21906;50.812;7.132;2022-08-18T15:40:33;13.50;;;12.40;;
4106;SDS011;21906;50.812;7.132;2022-08-18T15:42:59;14.77;;;13.67;;
4106;SDS011;21906;50.812;7.132;2022-08-18T15:45:33;14.70;;;13.40;;
4106;SDS011;21906;50.812;7.132;2022-08-18T15:48:03;13.67;;;12.67;;
4106;SDS011;21906;50.812;7.132;2022-08-18T15:50:29;13.87;;;12.70;;
4106;SDS011;21906;50.812;7.132;2022-08-18T15:52:56;15.37;;;13.97;;
4106;SDS011;21906;50.812;7.132;2022-08-18T15:55:25;14.73;;;13.30;;
4106;SDS011;21906;50.812;7.132;2022-08-18T15:57:52;14.30;;;13.30;;
4106;SDS011;21906;50.812;7.132;2022-08-18T16:00:19;12.30;;;11.47;;
4106;SDS011;21906;50.812;7.132;2022-08-18T16:02:50;13.07;;;12.07;;
4106;SDS011;21906;50.812;7.132;2022-08-18T16:05:21;12.90;;;12.10;;
4106;SDS011;21906;50.812;7.132;2022-08-18T16:07:49;14.10;;;13.10;;
4106;SDS011;21906;50.812;7.132;2022-08-18T16:10:16;13.50;;;12.43;;
4106;SDS011;21906;50.812;7.132;2022-08-18T16:12:44;14.57;;;13.33;;
4106;SDS011;21906;50.812;7.132;2022-08-18T16:15:12;13.50;;;12.53;;
4106;SDS011;21906;50.812;7.132;2022-08-18T16:17:39;11.80;;;10.97;;
4106;SDS011;21906;50.812;7.132;2022-08-18T16:20:05;13.87;;;12.57;;
4106;SDS011;21906;50.812;7.132;2022-08-18T16:22:32;13.63;;;12.70;;
4106;SDS011;21906;50.812;7.132;2022-08-18T16:24:59;12.40;;;11.50;;
4106;SDS011;21906;50.812;7.132;2022-08-18T16:27:26;13.50;;;12.50;;
4106;SDS011;21906;50.812;7.132;2022-08-18T16:29:55;14.17;;;12.90;;
4106;SDS011;21906;50.812;7.132;2022-08-18T16:32:21;15.30;;;14.27;;
4106;SDS011;21906;50.812;7.132;2022-08-18T16:34:47;14.47;;;13.40;;
4106;SDS011;21906;50.812;7.132;2022-08-18T16:37:13;14.57;;;13.47;;
4106;SDS011;21906;50.812;7.132;2022-08-18T16:39:39;14.27;;;13.07;;
4106;SDS011;21906;50.812;7.132;2022-08-18T16:42:04;13.87;;;12.87;;
4106;SDS011;21906;50.812;7.132;2022-08-18T16:44:31;13.33;;;12.30;;
4106;SDS011;21906;50.812;7.132;2022-08-18T16:46:57;13.87;;;12.97;;
4106;SDS011;21906;50.812;7.132;2022-08-18T16:49:26;17.03;;;15.83;;
4106;SDS011;21906;50.812;7.132;2022-08-18T16:51:53;13.33;;;12.43;;
4106;SDS011;21906;50.812;7.132;2022-08-18T16:54:19;14.40;;;13.40;;
4106;SDS011;21906;50.812;7.132;2022-08-18T16:56:44;15.57;;;14.47;;
4106;SDS011;21906;50.812;7.132;2022-08-18T16:59:10;16.03;;;14.73;;
4106;SDS011;21906;50.812;7.132;2022-08-18T17:01:54;16.80;;;15.57;;
4106;SDS011;21906;50.812;7.132;2022-08-18T17:04:38;16.57;;;15.27;;
4106;SDS011;21906;50.812;7.132;2022-08-18T17:07:04;15.20;;;14.17;;
4106;SDS011;21906;50.812;7.132;2022-08-18T17:09:31;18.13;;;16.67;;
4106;SDS011;21906;50.812;7.132;2022-08-18T17:11:58;16.37;;;15.03;;
4106;SDS011;21906;50.812;7.132;2022-08-18T17:14:25;17.73;;;16.43;;
4106;SDS011;21906;50.812;7.132;2022-08-18T17:16:53;15.50;;;14.50;;
4106;SDS011;21906;50.812;7.132;2022-08-18T17:19:24;16.03;;;14.77;;
4106;SDS011;21906;50.812;7.132;2022-08-18T17:21:53;18.13;;;16.83;;
4106;SDS011;21906;50.812;7.132;2022-08-18T17:24:19;15.90;;;14.80;;
4106;SDS011;21906;50.812;7.132;2022-08-18T17:26:58;16.07;;;14.97;;
4106;SDS011;21906;50.812;7.132;2022-08-18T17:32:38;15.73;;;14.73;;
4106;SDS011;21906;50.812;7.132;2022-08-18T17:35:14;15.90;;;14.70;;
4106;SDS011;21906;50.812;7.132;2022-08-18T17:37:50;16.90;;;15.60;;
4106;SDS011;21906;50.812;7.132;2022-08-18T17:40:28;17.33;;;16.03;;
4106;SDS011;21906;50.812;7.132;2022-08-18T17:43:03;18.23;;;16.73;;
4106;SDS011;21906;50.812;7.132;2022-08-18T17:45:33;16.00;;;14.60;;